sensor_id;sensor_type;location;lat;lon;timestamp;pressure;altitude;pressure_sealevel;temperature;humidity
10832;BME280;5469;48.574;8.768;2023-03-20T00:01:32;95059.28;;;7.66;nan
10832;BME280;5469;48.574;8.768;2023-03-20T00:04:05;95059.44;;;7.81;nan
10832;BME280;5469;48.574;8.768;2023-03-20T00:06:39;95057.09;;;7.85;nan
10832;BME280;5469;48.574;8.768;2023-03-20T00:09:12;95055.50;;;7.84;nan
10832;BME280;5469;48.574;8.768;2023-03-20T00:11:48;95054.84;;;7.99;nan
10832;BME280;5469;48.574;8.768;2023-03-20T00:14:23;95053.66;;;7.84;nan
10832;BME280;5469;48.574;8.768;2023-03-20T00:16:57;95060.00;;;7.83;nan
10832;BME280;5469;48.574;8.768;2023-03-20T00:19:31;95057.88;;;8.13;nan
10832;BME280;5469;48.574;8.768;2023-03-20T00:22:04;95060.66;;;8.01;nan
10832;BME280;5469;48.574;8.768;2023-03-20T00:24:37;95064.56;;;7.66;nan
10832;BME280;5469;48.574;8.768;2023-03-20T00:27:14;95051.41;;;7.98;nan
10832;BME280;5469;48.574;8.768;2023-03-20T00:29:48;95055.34;;;7.96;nan
10832;BME280;5469;48.574;8.768;2023-03-20T00:32:21;95066.63;;;8.18;nan
10832;BME280;5469;48.574;8.768;2023-03-20T00:34:54;95067.25;;;7.98;nan
10832;BME280;5469;48.574;8.768;2023-03-20T00:37:27;95065.63;;;7.70;nan
10832;BME280;5469;48.574;8.768;2023-03-20T00:40:01;95064.06;;;7.69;nan
10832;BME280;5469;48.574;8.768;2023-03-20T00:42:36;95061.13;;;7.93;nan
10832;BME280;5469;48.574;8.768;2023-03-20T00:45:12;95062.47;;;7.68;nan
10832;BME280;5469;48.574;8.768;2023-03-20T00:47:48;95062.59;;;7.78;nan
10832;BME280;5469;48.574;8.768;2023-03-20T00:50:25;95060.00;;;7.83;nan
10832;BME280;5469;48.574;8.768;2023-03-20T00:52:59;95062.66;;;7.88;nan
10832;BME280;5469;48.574;8.768;2023-03-20T00:55:33;95067.94;;;7.88;nan
10832;BME280;5469;48.574;8.768;2023-03-20T00:58:09;95065.28;;;7.83;nan
10832;BME280;5469;48.574;8.768;2023-03-20T01:00:43;95068.78;;;7.67;nan
10832;BME280;5469;48.574;8.768;2023-03-20T01:03:19;95069.22;;;7.59;nan
10832;BME280;5469;48.574;8.768;2023-03-20T01:05:54;95071.63;;;7.60;nan
10832;BME280;5469;48.574;8.768;2023-03-20T01:08:28;95068.19;;;7.38;nan
10832;BME280;5469;48.574;8.768;2023-03-20T01:11:01;95075.44;;;7.48;nan
10832;BME280;5469;48.574;8.768;2023-03-20T01:13:37;95073.94;;;7.57;nan
10832;BME280;5469;48.574;8.768;2023-03-20T01:16:19;95068.38;;;7.31;nan
10832;BME280;5469;48.574;8.768;2023-03-20T01:18:53;95067.97;;;7.39;nan
10832;BME280;5469;48.574;8.768;2023-03-20T01:21:26;95073.38;;;7.55;nan
10832;BME280;5469;48.574;8.768;2023-03-20T01:24:00;95071.41;;;7.67;nan
10832;BME280;5469;48.574;8.768;2023-03-20T01:26:34;95072.47;;;7.66;nan
10832;BME280;5469;48.574;8.768;2023-03-20T01:29:16;95065.78;;;7.36;nan
10832;BME280;5469;48.574;8.768;2023-03-20T01:31:51;95068.03;;;7.44;nan
10832;BME280;5469;48.574;8.768;2023-03-20T01:34:24;95067.47;;;7.42;nan
10832;BME280;5469;48.574;8.768;2023-03-20T01:36:58;95071.91;;;7.64;nan
10832;BME280;5469;48.574;8.768;2023-03-20T01:39:34;95069.66;;;7.29;nan
10832;BME280;5469;48.574;8.768;2023-03-20T01:42:07;95069.59;;;7.46;nan
10832;BME280;5469;48.574;8.768;2023-03-20T01:44:44;95080.44;;;7.05;nan
10832;BME280;5469;48.574;8.768;2023-03-20T01:47:19;95076.69;;;7.23;nan
10832;BME280;5469;48.574;8.768;2023-03-20T01:50:18;95072.97;;;7.41;nan
10832;BME280;5469;48.574;8.768;2023-03-20T01:52:58;95070.88;;;7.43;nan
10832;BME280;5469;48.574;8.768;2023-03-20T01:55:33;95065.91;;;7.47;nan
10832;BME280;5469;48.574;8.768;2023-03-20T01:58:12;95069.53;;;7.40;nan
10832;BME280;5469;48.574;8.768;2023-03-20T02:00:49;95064.66;;;7.76;nan
10832;BME280;5469;48.574;8.768;2023-03-20T02:03:23;95074.31;;;7.43;nan
10832;BME280;5469;48.574;8.768;2023-03-20T02:05:57;95084.00;;;7.38;nan
10832;BME280;5469;48.574;8.768;2023-03-20T02:08:35;95078.63;;;7.28;nan
10832;BME280;5469;48.574;8.768;2023-03-20T02:11:09;95091.47;;;7.02;nan
10832;BME280;5469;48.574;8.768;2023-03-20T02:13:44;95086.88;;;7.36;nan
10832;BME280;5469;48.574;8.768;2023-03-20T02:16:19;95089.47;;;6.92;nan
10832;BME280;5469;48.574;8.768;2023-03-20T02:18:54;95100.72;;;7.05;nan
10832;BME280;5469;48.574;8.768;2023-03-20T02:21:51;95094.47;;;6.72;nan
10832;BME280;5469;48.574;8.768;2023-03-20T02:25:11;95083.75;;;6.95;nan
10832;BME280;5469;48.574;8.768;2023-03-20T02:28:06;95084.06;;;7.21;nan
10832;BME280;5469;48.574;8.768;2023-03-20T02:31:05;95085.88;;;6.98;nan
10832;BME280;5469;48.574;8.768;2023-03-20T02:37:17;95094.34;;;7.00;nan
10832;BME280;5469;48.574;8.768;2023-03-20T02:40:13;95085.25;;;6.91;nan
10832;BME280;5469;48.574;8.768;2023-03-20T02:42:55;95088.38;;;7.27;nan
10832;BME280;5469;48.574;8.768;2023-03-20T02:48:19;95093.44;;;7.12;nan
10832;BME280;5469;48.574;8.768;2023-03-20T02:50:59;95095.94;;;7.02;nan
10832;BME280;5469;48.574;8.768;2023-03-20T02:53:39;95096.88;;;7.12;nan
10832;BME280;5469;48.574;8.768;2023-03-20T02:56:18;95099.19;;;7.09;nan
10832;BME280;5469;48.574;8.768;2023-03-20T02:58:57;95097.06;;;7.06;nan
10832;BME280;5469;48.574;8.768;2023-03-20T03:01:36;95095.09;;;7.18;nan
10832;BME280;5469;48.574;8.768;2023-03-20T03:04:15;95097.78;;;7.23;nan
10832;BME280;5469;48.574;8.768;2023-03-20T03:06:51;95094.97;;;7.08;nan
10832;BME280;5469;48.574;8.768;2023-03-20T03:09:29;95106.63;;;7.12;nan
10832;BME280;5469;48.574;8.768;2023-03-20T03:12:08;95105.16;;;7.21;nan
10832;BME280;5469;48.574;8.768;2023-03-20T03:14:46;95102.44;;;7.16;nan
10832;BME280;5469;48.574;8.768;2023-03-20T03:17:22;95100.38;;;7.18;nan
10832;BME280;5469;48.574;8.768;2023-03-20T03:20:00;95107.03;;;7.42;nan
10832;BME280;5469;48.574;8.768;2023-03-20T03:22:36;95104.25;;;7.32;nan
10832;BME280;5469;48.574;8.768;2023-03-20T03:25:11;95108.59;;;7.43;nan
10832;BME280;5469;48.574;8.768;2023-03-20T03:27:47;95109.09;;;7.40;nan
10832;BME280;5469;48.574;8.768;2023-03-20T03:30:26;95104.50;;;7.53;nan
10832;BME280;5469;48.574;8.768;2023-03-20T03:33:12;95117.69;;;7.53;nan
10832;BME280;5469;48.574;8.768;2023-03-20T03:35:48;95107.16;;;7.53;nan
10832;BME280;5469;48.574;8.768;2023-03-20T03:38:28;95112.09;;;7.49;nan
10832;BME280;5469;48.574;8.768;2023-03-20T03:41:16;95106.75;;;7.44;nan
10832;BME280;5469;48.574;8.768;2023-03-20T03:43:56;95111.78;;;7.46;nan
10832;BME280;5469;48.574;8.768;2023-03-20T03:46:37;95105.09;;;7.82;nan
10832;BME280;5469;48.574;8.768;2023-03-20T03:49:15;95111.31;;;7.49;nan
10832;BME280;5469;48.574;8.768;2023-03-20T03:51:53;95118.66;;;7.69;nan
10832;BME280;5469;48.574;8.768;2023-03-20T03:54:32;95119.50;;;7.74;nan
10832;BME280;5469;48.574;8.768;2023-03-20T03:57:08;95120.50;;;7.68;nan
10832;BME280;5469;48.574;8.768;2023-03-20T03:59:46;95116.69;;;7.59;nan
10832;BME280;5469;48.574;8.768;2023-03-20T04:02:22;95122.22;;;7.79;nan
10832;BME280;5469;48.574;8.768;2023-03-20T04:04:56;95124.13;;;7.62;nan
10832;BME280;5469;48.574;8.768;2023-03-20T04:07:31;95122.47;;;7.56;nan
10832;BME280;5469;48.574;8.768;2023-03-20T04:10:06;95121.41;;;7.57;nan
10832;BME280;5469;48.574;8.768;2023-03-20T04:12:42;95121.47;;;7.62;nan
10832;BME280;5469;48.574;8.768;2023-03-20T04:15:16;95123.56;;;7.60;nan
10832;BME280;5469;48.574;8.768;2023-03-20T04:17:51;95121.63;;;7.50;nan
10832;BME280;5469;48.574;8.768;2023-03-20T04:20:24;95116.69;;;7.59;nan
10832;BME280;5469;48.574;8.768;2023-03-20T04:22:57;95118.78;;;7.57;nan
10832;BME280;5469;48.574;8.768;2023-03-20T04:25:32;95109.41;;;7.44;nan
10832;BME280;5469;48.574;8.768;2023-03-20T04:28:07;95115.94;;;7.41;nan
10832;BME280;5469;48.574;8.768;2023-03-20T04:30:42;95114.00;;;7.54;nan
10832;BME280;5469;48.574;8.768;2023-03-20T04:33:19;95109.72;;;7.48;nan
10832;BME280;5469;48.574;8.768;2023-03-20T04:35:52;95118.91;;;7.67;nan
10832;BME280;5469;48.574;8.768;2023-03-20T04:38:26;95113.69;;;7.50;nan
10832;BME280;5469;48.574;8.768;2023-03-20T04:40:59;95122.34;;;7.46;nan
10832;BME280;5469;48.574;8.768;2023-03-20T04:43:34;95123.09;;;7.63;nan
10832;BME280;5469;48.574;8.768;2023-03-20T04:46:07;95126.88;;;7.72;nan
10832;BME280;5469;48.574;8.768;2023-03-20T04:48:41;95124.91;;;7.40;nan
10832;BME280;5469;48.574;8.768;2023-03-20T04:51:14;95127.13;;;7.49;nan
10832;BME280;5469;48.574;8.768;2023-03-20T04:53:47;95122.22;;;7.35;nan
10832;BME280;5469;48.574;8.768;2023-03-20T04:56:21;95123.75;;;7.53;nan
10832;BME280;5469;48.574;8.768;2023-03-20T04:58:55;95116.94;;;7.35;nan
10832;BME280;5469;48.574;8.768;2023-03-20T05:01:29;95129.19;;;7.47;nan
10832;BME280;5469;48.574;8.768;2023-03-20T05:04:02;95133.75;;;7.29;nan
10832;BME280;5469;48.574;8.768;2023-03-20T05:06:36;95134.97;;;7.43;nan
10832;BME280;5469;48.574;8.768;2023-03-20T05:09:09;95133.19;;;7.49;nan
10832;BME280;5469;48.574;8.768;2023-03-20T05:11:42;95143.66;;;7.22;nan
10832;BME280;5469;48.574;8.768;2023-03-20T05:14:17;95150.34;;;7.30;nan
10832;BME280;5469;48.574;8.768;2023-03-20T05:16:51;95145.09;;;7.30;nan
10832;BME280;5469;48.574;8.768;2023-03-20T05:19:24;95145.09;;;7.30;nan
10832;BME280;5469;48.574;8.768;2023-03-20T05:21:58;95133.13;;;7.22;nan
10832;BME280;5469;48.574;8.768;2023-03-20T05:24:32;95137.47;;;7.11;nan
10832;BME280;5469;48.574;8.768;2023-03-20T05:27:05;95133.41;;;7.04;nan
10832;BME280;5469;48.574;8.768;2023-03-20T05:29:40;95133.47;;;7.09;nan
10832;BME280;5469;48.574;8.768;2023-03-20T05:32:13;95139.59;;;6.97;nan
10832;BME280;5469;48.574;8.768;2023-03-20T05:34:46;95138.50;;;6.93;nan
10832;BME280;5469;48.574;8.768;2023-03-20T05:37:20;95140.19;;;6.99;nan
10832;BME280;5469;48.574;8.768;2023-03-20T05:39:53;95136.97;;;6.97;nan
10832;BME280;5469;48.574;8.768;2023-03-20T05:42:27;95142.31;;;7.03;nan
10832;BME280;5469;48.574;8.768;2023-03-20T05:45:02;95144.00;;;7.09;nan
10832;BME280;5469;48.574;8.768;2023-03-20T05:47:36;95139.75;;;7.08;nan
10832;BME280;5469;48.574;8.768;2023-03-20T05:50:10;95152.00;;;7.14;nan
10832;BME280;5469;48.574;8.768;2023-03-20T05:52:45;95147.66;;;7.08;nan
10832;BME280;5469;48.574;8.768;2023-03-20T05:55:19;95153.09;;;7.18;nan
10832;BME280;5469;48.574;8.768;2023-03-20T05:57:52;95155.66;;;7.13;nan
10832;BME280;5469;48.574;8.768;2023-03-20T06:00:27;95157.94;;;7.26;nan
10832;BME280;5469;48.574;8.768;2023-03-20T06:03:00;95159.00;;;7.25;nan
10832;BME280;5469;48.574;8.768;2023-03-20T06:05:34;95160.06;;;7.46;nan
10832;BME280;5469;48.574;8.768;2023-03-20T06:08:07;95167.09;;;7.40;nan
10832;BME280;5469;48.574;8.768;2023-03-20T06:10:41;95159.25;;;7.46;nan
10832;BME280;5469;48.574;8.768;2023-03-20T06:13:14;95160.72;;;7.36;nan
10832;BME280;5469;48.574;8.768;2023-03-20T06:15:49;95161.53;;;7.37;nan
10832;BME280;5469;48.574;8.768;2023-03-20T06:18:23;95165.03;;;7.42;nan
10832;BME280;5469;48.574;8.768;2023-03-20T06:20:56;95165.63;;;7.50;nan
10832;BME280;5469;48.574;8.768;2023-03-20T06:23:30;95170.78;;;7.39;nan
10832;BME280;5469;48.574;8.768;2023-03-20T06:26:03;95174.97;;;7.57;nan
10832;BME280;5469;48.574;8.768;2023-03-20T06:28:37;95177.56;;;7.74;nan
10832;BME280;5469;48.574;8.768;2023-03-20T06:31:12;95168.59;;;7.75;nan
10832;BME280;5469;48.574;8.768;2023-03-20T06:33:45;95167.75;;;7.92;nan
10832;BME280;5469;48.574;8.768;2023-03-20T06:36:18;95169.75;;;8.06;nan
10832;BME280;5469;48.574;8.768;2023-03-20T06:38:52;95168.72;;;7.85;nan
10832;BME280;5469;48.574;8.768;2023-03-20T06:41:25;95161.41;;;7.93;nan
10832;BME280;5469;48.574;8.768;2023-03-20T06:43:58;95165.75;;;8.04;nan
10832;BME280;5469;48.574;8.768;2023-03-20T06:46:33;95165.97;;;8.24;nan
10832;BME280;5469;48.574;8.768;2023-03-20T06:49:07;95167.81;;;8.46;nan
10832;BME280;5469;48.574;8.768;2023-03-20T06:51:40;95172.47;;;8.39;nan
10832;BME280;5469;48.574;8.768;2023-03-20T06:54:13;95176.84;;;8.28;nan
10832;BME280;5469;48.574;8.768;2023-03-20T06:56:46;95172.88;;;8.52;nan
10832;BME280;5469;48.574;8.768;2023-03-20T06:59:20;95169.06;;;8.16;nan
10832;BME280;5469;48.574;8.768;2023-03-20T07:01:55;95176.78;;;8.23;nan
10832;BME280;5469;48.574;8.768;2023-03-20T07:04:29;95176.75;;;8.45;nan
10832;BME280;5469;48.574;8.768;2023-03-20T07:07:02;95183.09;;;8.44;nan
10832;BME280;5469;48.574;8.768;2023-03-20T07:09:36;95179.34;;;8.40;nan
10832;BME280;5469;48.574;8.768;2023-03-20T07:12:11;95188.03;;;8.62;nan
10832;BME280;5469;48.574;8.768;2023-03-20T07:14:45;95199.66;;;8.66;nan
10832;BME280;5469;48.574;8.768;2023-03-20T07:17:20;95210.06;;;8.46;nan
10832;BME280;5469;48.574;8.768;2023-03-20T07:19:54;95200.59;;;8.50;nan
10832;BME280;5469;48.574;8.768;2023-03-20T07:22:28;95206.38;;;8.47;nan
10832;BME280;5469;48.574;8.768;2023-03-20T07:25:03;95204.78;;;8.46;nan
10832;BME280;5469;48.574;8.768;2023-03-20T07:27:37;95198.41;;;8.42;nan
10832;BME280;5469;48.574;8.768;2023-03-20T07:30:11;95210.25;;;8.66;nan
10832;BME280;5469;48.574;8.768;2023-03-20T07:32:46;95197.59;;;8.68;nan
10832;BME280;5469;48.574;8.768;2023-03-20T07:35:19;95200.81;;;8.75;nan
10832;BME280;5469;48.574;8.768;2023-03-20T07:37:53;95200.88;;;8.81;nan
10832;BME280;5469;48.574;8.768;2023-03-20T07:40:26;95198.28;;;8.86;nan
10832;BME280;5469;48.574;8.768;2023-03-20T07:42:59;95200.53;;;9.04;nan
10832;BME280;5469;48.574;8.768;2023-03-20T07:45:33;95196.38;;;8.81;nan
10832;BME280;5469;48.574;8.768;2023-03-20T07:48:08;95206.03;;;8.98;nan
10832;BME280;5469;48.574;8.768;2023-03-20T07:50:42;95207.41;;;9.05;nan
10832;BME280;5469;48.574;8.768;2023-03-20T07:53:15;95208.69;;;9.03;nan
10832;BME280;5469;48.574;8.768;2023-03-20T07:55:49;95215.59;;;9.04;nan
10832;BME280;5469;48.574;8.768;2023-03-20T07:58:22;95208.16;;;9.38;nan
10832;BME280;5469;48.574;8.768;2023-03-20T08:00:56;95213.06;;;9.19;nan
10832;BME280;5469;48.574;8.768;2023-03-20T08:03:30;95207.69;;;9.46;nan
10832;BME280;5469;48.574;8.768;2023-03-20T08:06:05;95207.16;;;9.49;nan
10832;BME280;5469;48.574;8.768;2023-03-20T08:08:40;95207.75;;;9.56;nan
10832;BME280;5469;48.574;8.768;2023-03-20T08:11:13;95216.22;;;9.53;nan
10832;BME280;5469;48.574;8.768;2023-03-20T08:13:47;95205.72;;;9.69;nan
10832;BME280;5469;48.574;8.768;2023-03-20T08:16:20;95213.09;;;9.67;nan
10832;BME280;5469;48.574;8.768;2023-03-20T08:18:55;95215.56;;;9.36;nan
10832;BME280;5469;48.574;8.768;2023-03-20T08:21:32;95214.03;;;9.45;nan
10832;BME280;5469;48.574;8.768;2023-03-20T08:24:06;95214.53;;;9.37;nan
10832;BME280;5469;48.574;8.768;2023-03-20T08:26:40;95215.16;;;9.54;nan
10832;BME280;5469;48.574;8.768;2023-03-20T08:29:14;95222.13;;;9.71;nan
10832;BME280;5469;48.574;8.768;2023-03-20T08:31:50;95208.78;;;9.50;nan
10832;BME280;5469;48.574;8.768;2023-03-20T08:34:24;95208.81;;;9.55;nan
10832;BME280;5469;48.574;8.768;2023-03-20T08:36:58;95212.69;;;9.90;nan
10832;BME280;5469;48.574;8.768;2023-03-20T08:39:31;95203.25;;;10.10;nan
10832;BME280;5469;48.574;8.768;2023-03-20T08:42:06;95209.56;;;10.03;nan
10832;BME280;5469;48.574;8.768;2023-03-20T08:44:40;95205.59;;;10.06;nan
10832;BME280;5469;48.574;8.768;2023-03-20T08:47:13;95204.69;;;10.33;nan
10832;BME280;5469;48.574;8.768;2023-03-20T08:49:49;95195.88;;;10.27;nan
10832;BME280;5469;48.574;8.768;2023-03-20T08:52:22;95199.16;;;10.60;nan
10832;BME280;5469;48.574;8.768;2023-03-20T08:54:55;95202.91;;;10.69;nan
10832;BME280;5469;48.574;8.768;2023-03-20T08:57:29;95206.03;;;10.40;nan
10832;BME280;5469;48.574;8.768;2023-03-20T09:00:02;95204.69;;;10.38;nan
10832;BME280;5469;48.574;8.768;2023-03-20T09:02:37;95205.28;;;10.70;nan
10832;BME280;5469;48.574;8.768;2023-03-20T09:05:11;95212.19;;;11.23;nan
10832;BME280;5469;48.574;8.768;2023-03-20T09:07:45;95211.38;;;11.02;nan
10832;BME280;5469;48.574;8.768;2023-03-20T09:10:18;95211.41;;;11.17;nan
10832;BME280;5469;48.574;8.768;2023-03-20T09:12:52;95211.91;;;11.50;nan
10832;BME280;5469;48.574;8.768;2023-03-20T09:15:25;95220.41;;;11.52;nan
10832;BME280;5469;48.574;8.768;2023-03-20T09:17:59;95218.94;;;12.06;nan
10832;BME280;5469;48.574;8.768;2023-03-20T09:20:34;95219.81;;;11.70;nan
10832;BME280;5469;48.574;8.768;2023-03-20T09:23:07;95223.31;;;11.45;nan
10832;BME280;5469;48.574;8.768;2023-03-20T09:25:41;95219.88;;;11.40;nan
10832;BME280;5469;48.574;8.768;2023-03-20T09:28:14;95224.13;;;11.30;nan
10832;BME280;5469;48.574;8.768;2023-03-20T09:30:48;95221.47;;;11.05;nan
10832;BME280;5469;48.574;8.768;2023-03-20T09:33:21;95228.88;;;10.67;nan
10832;BME280;5469;48.574;8.768;2023-03-20T09:35:56;95225.19;;;11.04;nan
10832;BME280;5469;48.574;8.768;2023-03-20T09:38:29;95225.72;;;10.85;nan
10832;BME280;5469;48.574;8.768;2023-03-20T09:41:04;95221.16;;;10.60;nan
10832;BME280;5469;48.574;8.768;2023-03-20T09:43:46;95226.44;;;10.55;nan
10832;BME280;5469;48.574;8.768;2023-03-20T09:46:32;95214.56;;;10.93;nan
10832;BME280;5469;48.574;8.768;2023-03-20T09:49:16;95216.69;;;11.12;nan
10832;BME280;5469;48.574;8.768;2023-03-20T09:51:58;95220.69;;;11.25;nan
10832;BME280;5469;48.574;8.768;2023-03-20T09:54:35;95225.41;;;11.53;nan
10832;BME280;5469;48.574;8.768;2023-03-20T09:57:16;95229.41;;;11.30;nan
10832;BME280;5469;48.574;8.768;2023-03-20T09:59:54;95227.31;;;11.22;nan
10832;BME280;5469;48.574;8.768;2023-03-20T10:02:37;95216.88;;;12.52;nan
10832;BME280;5469;48.574;8.768;2023-03-20T10:05:20;95225.09;;;11.86;nan
10832;BME280;5469;48.574;8.768;2023-03-20T10:07:58;95231.38;;;12.20;nan
10832;BME280;5469;48.574;8.768;2023-03-20T10:10:41;95224.56;;;11.99;nan
10832;BME280;5469;48.574;8.768;2023-03-20T10:13:38;95227.75;;;11.86;nan
10832;BME280;5469;48.574;8.768;2023-03-20T10:16:21;95228.25;;;11.98;nan
10832;BME280;5469;48.574;8.768;2023-03-20T10:19:01;95237.91;;;11.43;nan
10832;BME280;5469;48.574;8.768;2023-03-20T10:21:41;95229.94;;;11.48;nan
10832;BME280;5469;48.574;8.768;2023-03-20T10:24:21;95229.41;;;11.46;nan
10832;BME280;5469;48.574;8.768;2023-03-20T10:27:03;95232.06;;;11.15;nan
10832;BME280;5469;48.574;8.768;2023-03-20T10:29:46;95230.50;;;11.45;nan
10832;BME280;5469;48.574;8.768;2023-03-20T10:32:25;95228.38;;;11.52;nan
10832;BME280;5469;48.574;8.768;2023-03-20T10:35:12;95237.34;;;11.66;nan
10832;BME280;5469;48.574;8.768;2023-03-20T10:38:00;95224.59;;;11.89;nan
10832;BME280;5469;48.574;8.768;2023-03-20T10:40:40;95228.22;;;12.08;nan
10832;BME280;5469;48.574;8.768;2023-03-20T10:43:17;95228.81;;;11.95;nan
10832;BME280;5469;48.574;8.768;2023-03-20T10:45:57;95224.16;;;12.31;nan
10832;BME280;5469;48.574;8.768;2023-03-20T10:48:35;95218.59;;;13.11;nan
10832;BME280;5469;48.574;8.768;2023-03-20T10:51:13;95214.00;;;12.88;nan
10832;BME280;5469;48.574;8.768;2023-03-20T10:53:48;95213.63;;;13.05;nan
10832;BME280;5469;48.574;8.768;2023-03-20T10:56:29;95223.25;;;12.56;nan
10832;BME280;5469;48.574;8.768;2023-03-20T10:59:06;95220.75;;;13.09;nan
10832;BME280;5469;48.574;8.768;2023-03-20T11:01:40;95215.19;;;13.40;nan
10832;BME280;5469;48.574;8.768;2023-03-20T11:04:14;95217.16;;;13.59;nan
10832;BME280;5469;48.574;8.768;2023-03-20T11:06:53;95204.56;;;14.36;nan
10832;BME280;5469;48.574;8.768;2023-03-20T11:09:30;95228.16;;;16.03;nan
10832;BME280;5469;48.574;8.768;2023-03-20T11:12:12;95210.19;;;17.40;nan
10832;BME280;5469;48.574;8.768;2023-03-20T11:14:47;95218.59;;;17.25;nan
10832;BME280;5469;48.574;8.768;2023-03-20T11:17:20;95206.75;;;17.71;nan
10832;BME280;5469;48.574;8.768;2023-03-20T11:20:02;95208.78;;;18.54;nan
10832;BME280;5469;48.574;8.768;2023-03-20T11:22:36;95212.38;;;17.83;nan
10832;BME280;5469;48.574;8.768;2023-03-20T11:25:21;95217.28;;;17.14;nan
10832;BME280;5469;48.574;8.768;2023-03-20T11:28:18;95205.44;;;17.82;nan
10832;BME280;5469;48.574;8.768;2023-03-20T11:30:57;95221.72;;;16.18;nan
10832;BME280;5469;48.574;8.768;2023-03-20T11:33:35;95235.91;;;14.88;nan
10832;BME280;5469;48.574;8.768;2023-03-20T11:36:11;95220.06;;;14.77;nan
10832;BME280;5469;48.574;8.768;2023-03-20T11:38:52;95235.19;;;14.63;nan
10832;BME280;5469;48.574;8.768;2023-03-20T11:41:30;95221.47;;;14.51;nan
10832;BME280;5469;48.574;8.768;2023-03-20T11:44:28;95222.84;;;14.86;nan
10832;BME280;5469;48.574;8.768;2023-03-20T11:47:03;95219.59;;;14.70;nan
10832;BME280;5469;48.574;8.768;2023-03-20T11:49:44;95228.47;;;15.03;nan
10832;BME280;5469;48.574;8.768;2023-03-20T11:52:21;95221.97;;;16.58;nan
10832;BME280;5469;48.574;8.768;2023-03-20T11:54:57;95228.44;;;15.22;nan
10832;BME280;5469;48.574;8.768;2023-03-20T11:57:33;95219.69;;;13.98;nan
10832;BME280;5469;48.574;8.768;2023-03-20T12:00:17;95219.09;;;14.68;nan
10832;BME280;5469;48.574;8.768;2023-03-20T12:02:52;95229.31;;;14.18;nan
10832;BME280;5469;48.574;8.768;2023-03-20T12:05:31;95221.28;;;13.99;nan
10832;BME280;5469;48.574;8.768;2023-03-20T12:08:09;95224.38;;;14.73;nan
10832;BME280;5469;48.574;8.768;2023-03-20T12:10:48;95213.09;;;17.75;nan
10832;BME280;5469;48.574;8.768;2023-03-20T12:13:26;95218.59;;;16.52;nan
10832;BME280;5469;48.574;8.768;2023-03-20T12:16:05;95203.94;;;16.64;nan
10832;BME280;5469;48.574;8.768;2023-03-20T12:18:44;95203.66;;;18.84;nan
10832;BME280;5469;48.574;8.768;2023-03-20T12:21:21;95198.91;;;19.24;nan
10832;BME280;5469;48.574;8.768;2023-03-20T12:23:59;95198.13;;;19.06;nan
10832;BME280;5469;48.574;8.768;2023-03-20T12:26:38;95203.63;;;19.36;nan
10832;BME280;5469;48.574;8.768;2023-03-20T12:29:19;95199.22;;;18.13;nan
10832;BME280;5469;48.574;8.768;2023-03-20T12:31:58;95196.38;;;17.78;nan
10832;BME280;5469;48.574;8.768;2023-03-20T12:34:38;95198.66;;;17.09;nan
10832;BME280;5469;48.574;8.768;2023-03-20T12:37:14;95186.22;;;17.35;nan
10832;BME280;5469;48.574;8.768;2023-03-20T12:39:52;95188.69;;;18.17;nan
10832;BME280;5469;48.574;8.768;2023-03-20T12:42:36;95179.91;;;19.47;nan
10832;BME280;5469;48.574;8.768;2023-03-20T12:45:13;95175.22;;;17.77;nan
10832;BME280;5469;48.574;8.768;2023-03-20T12:48:05;95182.56;;;17.54;nan
10832;BME280;5469;48.574;8.768;2023-03-20T12:50:47;95175.44;;;16.31;nan
10832;BME280;5469;48.574;8.768;2023-03-20T12:53:46;95179.88;;;16.36;nan
10832;BME280;5469;48.574;8.768;2023-03-20T12:56:30;95187.66;;;15.96;nan
10832;BME280;5469;48.574;8.768;2023-03-20T12:59:13;95180.44;;;15.50;nan
10832;BME280;5469;48.574;8.768;2023-03-20T13:01:52;95186.66;;;15.32;nan
10832;BME280;5469;48.574;8.768;2023-03-20T13:04:49;95181.63;;;15.11;nan
10832;BME280;5469;48.574;8.768;2023-03-20T13:07:39;95178.38;;;14.81;nan
10832;BME280;5469;48.574;8.768;2023-03-20T13:10:20;95172.16;;;15.19;nan
10832;BME280;5469;48.574;8.768;2023-03-20T13:13:02;95172.69;;;16.23;nan
10832;BME280;5469;48.574;8.768;2023-03-20T13:15:50;95165.63;;;15.44;nan
10832;BME280;5469;48.574;8.768;2023-03-20T13:18:39;95163.41;;;15.79;nan
10832;BME280;5469;48.574;8.768;2023-03-20T13:21:21;95171.84;;;14.50;nan
10832;BME280;5469;48.574;8.768;2023-03-20T13:24:07;95163.56;;;15.22;nan
10832;BME280;5469;48.574;8.768;2023-03-20T13:26:49;95157.25;;;15.92;nan
10832;BME280;5469;48.574;8.768;2023-03-20T13:29:29;95152.63;;;17.29;nan
10832;BME280;5469;48.574;8.768;2023-03-20T13:32:14;95156.41;;;16.33;nan
10832;BME280;5469;48.574;8.768;2023-03-20T13:35:20;95153.00;;;15.77;nan
10832;BME280;5469;48.574;8.768;2023-03-20T13:38:00;95152.19;;;15.77;nan
10832;BME280;5469;48.574;8.768;2023-03-20T13:40:39;95148.59;;;15.07;nan
10832;BME280;5469;48.574;8.768;2023-03-20T13:43:22;95146.09;;;15.29;nan
10832;BME280;5469;48.574;8.768;2023-03-20T13:46:01;95139.19;;;15.28;nan
10832;BME280;5469;48.574;8.768;2023-03-20T13:48:39;95147.88;;;14.69;nan
10832;BME280;5469;48.574;8.768;2023-03-20T13:51:20;95142.44;;;14.93;nan
10832;BME280;5469;48.574;8.768;2023-03-20T13:54:10;95147.78;;;14.17;nan
10832;BME280;5469;48.574;8.768;2023-03-20T13:56:52;95141.72;;;14.68;nan
10832;BME280;5469;48.574;8.768;2023-03-20T13:59:50;95143.94;;;14.99;nan
10832;BME280;5469;48.574;8.768;2023-03-20T14:02:50;95147.66;;;14.65;nan
10832;BME280;5469;48.574;8.768;2023-03-20T14:05:30;95138.56;;;14.85;nan
10832;BME280;5469;48.574;8.768;2023-03-20T14:08:31;95134.31;;;13.60;nan
10832;BME280;5469;48.574;8.768;2023-03-20T14:11:14;95143.97;;;13.80;nan
10832;BME280;5469;48.574;8.768;2023-03-20T14:13:49;95136.63;;;13.67;nan
10832;BME280;5469;48.574;8.768;2023-03-20T14:16:26;95134.09;;;13.81;nan
10832;BME280;5469;48.574;8.768;2023-03-20T14:19:06;95129.06;;;13.31;nan
10832;BME280;5469;48.574;8.768;2023-03-20T14:21:44;95137.28;;;13.83;nan
10832;BME280;5469;48.574;8.768;2023-03-20T14:24:20;95131.06;;;14.30;nan
10832;BME280;5469;48.574;8.768;2023-03-20T14:26:58;95136.47;;;13.82;nan
10832;BME280;5469;48.574;8.768;2023-03-20T14:29:35;95146.44;;;13.47;nan
10832;BME280;5469;48.574;8.768;2023-03-20T14:32:31;95142.94;;;13.76;nan
10832;BME280;5469;48.574;8.768;2023-03-20T14:35:22;95134.91;;;13.28;nan
10832;BME280;5469;48.574;8.768;2023-03-20T14:38:19;95142.81;;;13.86;nan
10832;BME280;5469;48.574;8.768;2023-03-20T14:41:01;95138.72;;;12.87;nan
10832;BME280;5469;48.574;8.768;2023-03-20T14:43:51;95141.03;;;12.94;nan